sensor_id;sensor_type;location;lat;lon;timestamp;P1;durP1;ratioP1;P2;durP2;ratioP2
9801;SDS011;4940;50.900;4.672;2022-08-19T00:00:36;13.90;;;9.27;;
9801;SDS011;4940;50.900;4.672;2022-08-19T00:03:03;12.02;;;8.88;;
9801;SDS011;4940;50.900;4.672;2022-08-19T00:05:32;13.13;;;8.80;;
9801;SDS011;4940;50.900;4.672;2022-08-19T00:08:02;13.85;;;9.05;;
9801;SDS011;4940;50.900;4.672;2022-08-19T00:10:30;12.38;;;9.38;;
9801;SDS011;4940;50.900;4.672;2022-08-19T00:12:59;14.30;;;9.98;;
9801;SDS011;4940;50.900;4.672;2022-08-19T00:15:27;17.83;;;11.50;;
9801;SDS011;4940;50.900;4.672;2022-08-19T00:17:54;17.73;;;11.02;;
9801;SDS011;4940;50.900;4.672;2022-08-19T00:20:22;16.23;;;11.05;;
9801;SDS011;4940;50.900;4.672;2022-08-19T00:22:50;16.83;;;11.63;;
9801;SDS011;4940;50.900;4.672;2022-08-19T00:25:22;17.13;;;11.75;;
9801;SDS011;4940;50.900;4.672;2022-08-19T00:27:52;16.27;;;11.35;;
9801;SDS011;4940;50.900;4.672;2022-08-19T00:30:34;16.45;;;11.48;;
9801;SDS011;4940;50.900;4.672;2022-08-19T00:33:11;19.10;;;11.95;;
9801;SDS011;4940;50.900;4.672;2022-08-19T00:35:39;17.20;;;12.68;;
9801;SDS011;4940;50.900;4.672;2022-08-19T00:38:06;18.38;;;11.95;;
9801;SDS011;4940;50.900;4.672;2022-08-19T00:40:40;19.30;;;12.38;;
9801;SDS011;4940;50.900;4.672;2022-08-19T00:43:12;20.90;;;12.10;;
9801;SDS011;4940;50.900;4.672;2022-08-19T00:45:39;17.77;;;11.75;;
9801;SDS011;4940;50.900;4.672;2022-08-19T00:48:09;17.48;;;11.35;;
9801;SDS011;4940;50.900;4.672;2022-08-19T00:50:37;19.48;;;12.20;;
9801;SDS011;4940;50.900;4.672;2022-08-19T00:53:08;19.15;;;13.02;;
9801;SDS011;4940;50.900;4.672;2022-08-19T00:55:37;21.38;;;13.30;;
9801;SDS011;4940;50.900;4.672;2022-08-19T00:58:10;23.38;;;13.02;;
9801;SDS011;4940;50.900;4.672;2022-08-19T01:00:50;23.50;;;13.68;;
9801;SDS011;4940;50.900;4.672;2022-08-19T01:03:18;21.63;;;14.57;;
9801;SDS011;4940;50.900;4.672;2022-08-19T01:05:49;23.90;;;15.43;;
9801;SDS011;4940;50.900;4.672;2022-08-19T01:08:19;24.52;;;15.25;;
9801;SDS011;4940;50.900;4.672;2022-08-19T01:13:39;30.50;;;17.15;;
9801;SDS011;4940;50.900;4.672;2022-08-19T01:16:08;32.00;;;18.15;;
9801;SDS011;4940;50.900;4.672;2022-08-19T01:18:52;27.00;;;17.98;;
9801;SDS011;4940;50.900;4.672;2022-08-19T01:21:22;33.72;;;18.67;;
9801;SDS011;4940;50.900;4.672;2022-08-19T01:23:56;33.08;;;17.75;;
9801;SDS011;4940;50.900;4.672;2022-08-19T01:26:24;32.22;;;18.30;;
9801;SDS011;4940;50.900;4.672;2022-08-19T01:28:54;31.80;;;18.45;;
9801;SDS011;4940;50.900;4.672;2022-08-19T01:31:23;31.48;;;18.70;;
9801;SDS011;4940;50.900;4.672;2022-08-19T01:33:52;34.78;;;19.13;;
9801;SDS011;4940;50.900;4.672;2022-08-19T01:36:22;30.33;;;18.30;;
9801;SDS011;4940;50.900;4.672;2022-08-19T01:38:51;34.38;;;19.50;;
9801;SDS011;4940;50.900;4.672;2022-08-19T01:41:20;31.75;;;18.73;;
9801;SDS011;4940;50.900;4.672;2022-08-19T01:43:48;28.52;;;17.70;;
9801;SDS011;4940;50.900;4.672;2022-08-19T01:46:16;31.80;;;19.17;;
9801;SDS011;4940;50.900;4.672;2022-08-19T01:48:43;33.20;;;18.67;;
9801;SDS011;4940;50.900;4.672;2022-08-19T01:51:11;34.70;;;19.45;;
9801;SDS011;4940;50.900;4.672;2022-08-19T01:53:45;33.67;;;19.17;;
9801;SDS011;4940;50.900;4.672;2022-08-19T01:56:14;32.55;;;18.75;;
9801;SDS011;4940;50.900;4.672;2022-08-19T01:58:43;34.03;;;19.20;;
9801;SDS011;4940;50.900;4.672;2022-08-19T02:01:15;37.10;;;19.88;;
9801;SDS011;4940;50.900;4.672;2022-08-19T02:03:43;38.10;;;20.55;;
9801;SDS011;4940;50.900;4.672;2022-08-19T02:06:11;36.17;;;20.20;;
9801;SDS011;4940;50.900;4.672;2022-08-19T02:08:39;38.00;;;19.70;;
9801;SDS011;4940;50.900;4.672;2022-08-19T02:11:06;37.40;;;19.13;;
9801;SDS011;4940;50.900;4.672;2022-08-19T02:13:33;36.78;;;20.85;;
9801;SDS011;4940;50.900;4.672;2022-08-19T02:16:04;36.63;;;20.58;;
9801;SDS011;4940;50.900;4.672;2022-08-19T02:18:31;39.13;;;20.80;;
9801;SDS011;4940;50.900;4.672;2022-08-19T02:20:59;41.17;;;22.50;;
9801;SDS011;4940;50.900;4.672;2022-08-19T02:23:26;37.90;;;20.80;;
9801;SDS011;4940;50.900;4.672;2022-08-19T02:25:53;37.38;;;19.67;;
9801;SDS011;4940;50.900;4.672;2022-08-19T02:28:21;41.78;;;20.90;;
9801;SDS011;4940;50.900;4.672;2022-08-19T02:30:48;40.85;;;20.15;;
9801;SDS011;4940;50.900;4.672;2022-08-19T02:33:17;43.35;;;21.73;;
9801;SDS011;4940;50.900;4.672;2022-08-19T02:35:46;43.17;;;21.70;;
9801;SDS011;4940;50.900;4.672;2022-08-19T02:38:13;50.55;;;23.23;;
9801;SDS011;4940;50.900;4.672;2022-08-19T02:40:53;43.85;;;22.23;;
9801;SDS011;4940;50.900;4.672;2022-08-19T02:43:24;40.95;;;22.08;;
9801;SDS011;4940;50.900;4.672;2022-08-19T02:45:52;42.53;;;21.75;;
9801;SDS011;4940;50.900;4.672;2022-08-19T02:48:22;41.22;;;21.23;;
9801;SDS011;4940;50.900;4.672;2022-08-19T02:50:51;39.08;;;20.92;;
9801;SDS011;4940;50.900;4.672;2022-08-19T02:53:20;37.80;;;20.88;;
9801;SDS011;4940;50.900;4.672;2022-08-19T02:55:47;36.13;;;18.75;;
9801;SDS011;4940;50.900;4.672;2022-08-19T02:58:16;36.78;;;18.48;;
9801;SDS011;4940;50.900;4.672;2022-08-19T03:00:45;33.20;;;18.05;;
9801;SDS011;4940;50.900;4.672;2022-08-19T03:03:14;31.38;;;17.70;;
9801;SDS011;4940;50.900;4.672;2022-08-19T03:05:44;32.10;;;18.25;;
9801;SDS011;4940;50.900;4.672;2022-08-19T03:08:12;37.88;;;19.20;;
9801;SDS011;4940;50.900;4.672;2022-08-19T03:10:40;33.22;;;17.55;;
9801;SDS011;4940;50.900;4.672;2022-08-19T03:13:23;32.67;;;17.65;;
9801;SDS011;4940;50.900;4.672;2022-08-19T03:15:56;38.20;;;18.15;;
9801;SDS011;4940;50.900;4.672;2022-08-19T03:18:23;36.20;;;17.70;;
9801;SDS011;4940;50.900;4.672;2022-08-19T03:20:52;35.72;;;18.13;;
9801;SDS011;4940;50.900;4.672;2022-08-19T03:23:20;37.33;;;18.63;;
9801;SDS011;4940;50.900;4.672;2022-08-19T03:25:48;32.83;;;17.02;;
9801;SDS011;4940;50.900;4.672;2022-08-19T03:28:17;30.85;;;17.05;;
9801;SDS011;4940;50.900;4.672;2022-08-19T03:30:54;28.10;;;16.58;;
9801;SDS011;4940;50.900;4.672;2022-08-19T03:33:23;28.90;;;15.63;;
9801;SDS011;4940;50.900;4.672;2022-08-19T03:36:03;26.60;;;14.63;;
9801;SDS011;4940;50.900;4.672;2022-08-19T03:38:38;23.95;;;14.30;;
9801;SDS011;4940;50.900;4.672;2022-08-19T03:41:08;24.33;;;13.82;;
9801;SDS011;4940;50.900;4.672;2022-08-19T03:43:38;27.02;;;14.52;;
9801;SDS011;4940;50.900;4.672;2022-08-19T03:46:07;28.65;;;14.30;;
9801;SDS011;4940;50.900;4.672;2022-08-19T03:48:36;21.98;;;13.63;;
9801;SDS011;4940;50.900;4.672;2022-08-19T03:51:06;21.20;;;12.25;;
9801;SDS011;4940;50.900;4.672;2022-08-19T03:53:34;24.80;;;14.23;;
9801;SDS011;4940;50.900;4.672;2022-08-19T03:56:07;26.83;;;13.85;;
9801;SDS011;4940;50.900;4.672;2022-08-19T03:58:35;22.08;;;12.75;;
9801;SDS011;4940;50.900;4.672;2022-08-19T04:01:02;25.88;;;15.02;;
9801;SDS011;4940;50.900;4.672;2022-08-19T04:03:34;26.58;;;14.07;;
9801;SDS011;4940;50.900;4.672;2022-08-19T04:06:10;28.75;;;14.68;;
9801;SDS011;4940;50.900;4.672;2022-08-19T04:08:38;29.02;;;15.73;;
9801;SDS011;4940;50.900;4.672;2022-08-19T04:11:06;30.15;;;16.55;;
9801;SDS011;4940;50.900;4.672;2022-08-19T04:13:34;33.75;;;17.75;;
9801;SDS011;4940;50.900;4.672;2022-08-19T04:16:01;29.50;;;16.50;;
9801;SDS011;4940;50.900;4.672;2022-08-19T04:18:29;29.15;;;16.77;;
9801;SDS011;4940;50.900;4.672;2022-08-19T04:20:57;32.40;;;16.63;;
9801;SDS011;4940;50.900;4.672;2022-08-19T04:23:27;35.05;;;18.38;;
9801;SDS011;4940;50.900;4.672;2022-08-19T04:25:57;32.33;;;17.92;;
9801;SDS011;4940;50.900;4.672;2022-08-19T04:28:25;30.45;;;16.17;;
9801;SDS011;4940;50.900;4.672;2022-08-19T04:30:54;32.28;;;17.20;;
9801;SDS011;4940;50.900;4.672;2022-08-19T04:33:23;28.95;;;15.50;;
9801;SDS011;4940;50.900;4.672;2022-08-19T04:35:54;27.95;;;15.77;;
9801;SDS011;4940;50.900;4.672;2022-08-19T04:38:23;25.98;;;13.98;;
9801;SDS011;4940;50.900;4.672;2022-08-19T04:40:52;25.08;;;13.82;;
9801;SDS011;4940;50.900;4.672;2022-08-19T04:43:36;23.13;;;12.93;;
9801;SDS011;4940;50.900;4.672;2022-08-19T04:46:04;29.55;;;14.43;;
9801;SDS011;4940;50.900;4.672;2022-08-19T04:48:33;34.20;;;15.77;;
9801;SDS011;4940;50.900;4.672;2022-08-19T04:51:00;32.50;;;16.23;;
9801;SDS011;4940;50.900;4.672;2022-08-19T04:53:32;34.00;;;18.75;;
9801;SDS011;4940;50.900;4.672;2022-08-19T04:56:03;31.17;;;17.23;;
9801;SDS011;4940;50.900;4.672;2022-08-19T04:58:32;32.63;;;17.25;;
9801;SDS011;4940;50.900;4.672;2022-08-19T05:00:59;30.70;;;16.92;;
9801;SDS011;4940;50.900;4.672;2022-08-19T05:03:26;33.03;;;16.58;;
9801;SDS011;4940;50.900;4.672;2022-08-19T05:05:58;29.15;;;15.70;;
9801;SDS011;4940;50.900;4.672;2022-08-19T05:08:29;29.83;;;16.58;;
9801;SDS011;4940;50.900;4.672;2022-08-19T05:10:57;29.08;;;16.00;;
9801;SDS011;4940;50.900;4.672;2022-08-19T05:13:26;28.73;;;15.52;;
9801;SDS011;4940;50.900;4.672;2022-08-19T05:15:53;34.00;;;17.05;;
9801;SDS011;4940;50.900;4.672;2022-08-19T05:18:21;29.02;;;15.27;;
9801;SDS011;4940;50.900;4.672;2022-08-19T05:21:06;29.33;;;16.25;;
9801;SDS011;4940;50.900;4.672;2022-08-19T05:23:52;28.48;;;16.23;;
9801;SDS011;4940;50.900;4.672;2022-08-19T05:26:19;29.13;;;14.93;;
9801;SDS011;4940;50.900;4.672;2022-08-19T05:28:47;25.20;;;14.93;;
9801;SDS011;4940;50.900;4.672;2022-08-19T05:31:14;26.95;;;15.48;;
9801;SDS011;4940;50.900;4.672;2022-08-19T05:33:42;29.67;;;16.05;;
9801;SDS011;4940;50.900;4.672;2022-08-19T05:36:09;30.25;;;14.48;;
9801;SDS011;4940;50.900;4.672;2022-08-19T05:38:36;24.25;;;13.88;;
9801;SDS011;4940;50.900;4.672;2022-08-19T05:41:06;22.08;;;12.95;;
9801;SDS011;4940;50.900;4.672;2022-08-19T05:43:34;24.45;;;12.88;;
9801;SDS011;4940;50.900;4.672;2022-08-19T05:46:02;19.73;;;11.85;;
9801;SDS011;4940;50.900;4.672;2022-08-19T05:48:31;19.50;;;11.05;;
9801;SDS011;4940;50.900;4.672;2022-08-19T05:51:02;20.92;;;11.85;;
9801;SDS011;4940;50.900;4.672;2022-08-19T05:53:31;21.70;;;11.90;;
9801;SDS011;4940;50.900;4.672;2022-08-19T05:56:03;17.10;;;10.57;;
9801;SDS011;4940;50.900;4.672;2022-08-19T05:58:30;20.02;;;10.50;;
9801;SDS011;4940;50.900;4.672;2022-08-19T06:00:58;20.75;;;11.25;;
9801;SDS011;4940;50.900;4.672;2022-08-19T06:03:30;20.45;;;9.50;;
9801;SDS011;4940;50.900;4.672;2022-08-19T06:05:59;17.00;;;9.50;;
9801;SDS011;4940;50.900;4.672;2022-08-19T06:08:27;16.77;;;9.95;;
9801;SDS011;4940;50.900;4.672;2022-08-19T06:10:55;14.57;;;9.48;;
9801;SDS011;4940;50.900;4.672;2022-08-19T06:13:22;16.15;;;9.68;;
9801;SDS011;4940;50.900;4.672;2022-08-19T06:15:51;16.63;;;8.57;;
9801;SDS011;4940;50.900;4.672;2022-08-19T06:18:18;15.35;;;10.07;;
9801;SDS011;4940;50.900;4.672;2022-08-19T06:20:46;15.52;;;8.75;;
9801;SDS011;4940;50.900;4.672;2022-08-19T06:23:14;14.50;;;9.15;;
9801;SDS011;4940;50.900;4.672;2022-08-19T06:25:41;16.17;;;9.80;;
9801;SDS011;4940;50.900;4.672;2022-08-19T06:28:08;17.00;;;9.30;;
9801;SDS011;4940;50.900;4.672;2022-08-19T06:30:36;18.70;;;9.43;;
9801;SDS011;4940;50.900;4.672;2022-08-19T06:33:03;15.63;;;9.70;;
9801;SDS011;4940;50.900;4.672;2022-08-19T06:35:31;19.38;;;9.90;;
9801;SDS011;4940;50.900;4.672;2022-08-19T06:38:00;15.68;;;9.43;;
9801;SDS011;4940;50.900;4.672;2022-08-19T06:40:28;22.40;;;9.70;;
9801;SDS011;4940;50.900;4.672;2022-08-19T06:42:55;18.63;;;10.50;;
9801;SDS011;4940;50.900;4.672;2022-08-19T06:45:24;16.67;;;9.73;;
9801;SDS011;4940;50.900;4.672;2022-08-19T06:47:51;17.33;;;9.38;;
9801;SDS011;4940;50.900;4.672;2022-08-19T06:50:21;17.17;;;9.35;;
9801;SDS011;4940;50.900;4.672;2022-08-19T06:52:48;13.70;;;9.50;;
9801;SDS011;4940;50.900;4.672;2022-08-19T06:55:18;15.32;;;9.20;;
9801;SDS011;4940;50.900;4.672;2022-08-19T06:57:46;18.77;;;9.70;;
9801;SDS011;4940;50.900;4.672;2022-08-19T07:00:13;13.45;;;8.80;;
9801;SDS011;4940;50.900;4.672;2022-08-19T07:02:40;15.20;;;9.27;;
9801;SDS011;4940;50.900;4.672;2022-08-19T07:05:08;14.65;;;8.75;;
9801;SDS011;4940;50.900;4.672;2022-08-19T07:07:36;12.50;;;8.05;;
9801;SDS011;4940;50.900;4.672;2022-08-19T07:10:03;15.38;;;8.38;;
9801;SDS011;4940;50.900;4.672;2022-08-19T07:12:33;15.10;;;7.75;;
9801;SDS011;4940;50.900;4.672;2022-08-19T07:15:00;11.63;;;8.03;;
9801;SDS011;4940;50.900;4.672;2022-08-19T07:17:27;10.77;;;6.93;;
9801;SDS011;4940;50.900;4.672;2022-08-19T07:19:55;12.43;;;7.65;;
9801;SDS011;4940;50.900;4.672;2022-08-19T07:22:22;8.60;;;6.30;;
9801;SDS011;4940;50.900;4.672;2022-08-19T07:24:49;11.23;;;6.97;;
9801;SDS011;4940;50.900;4.672;2022-08-19T07:27:17;9.98;;;5.85;;
9801;SDS011;4940;50.900;4.672;2022-08-19T07:29:46;12.63;;;6.75;;
9801;SDS011;4940;50.900;4.672;2022-08-19T07:32:13;6.32;;;4.53;;
9801;SDS011;4940;50.900;4.672;2022-08-19T07:34:40;8.95;;;4.75;;
9801;SDS011;4940;50.900;4.672;2022-08-19T07:37:07;7.43;;;4.30;;
9801;SDS011;4940;50.900;4.672;2022-08-19T07:39:35;5.65;;;4.30;;
9801;SDS011;4940;50.900;4.672;2022-08-19T07:42:08;6.55;;;4.28;;
9801;SDS011;4940;50.900;4.672;2022-08-19T07:44:36;5.40;;;3.70;;
9801;SDS011;4940;50.900;4.672;2022-08-19T07:47:05;7.07;;;3.13;;
9801;SDS011;4940;50.900;4.672;2022-08-19T07:49:33;6.70;;;3.40;;
9801;SDS011;4940;50.900;4.672;2022-08-19T07:52:01;7.28;;;3.58;;
9801;SDS011;4940;50.900;4.672;2022-08-19T07:54:31;8.25;;;3.97;;
9801;SDS011;4940;50.900;4.672;2022-08-19T07:57:00;5.13;;;3.08;;
9801;SDS011;4940;50.900;4.672;2022-08-19T07:59:30;5.07;;;3.13;;
9801;SDS011;4940;50.900;4.672;2022-08-19T08:01:58;5.45;;;3.47;;
9801;SDS011;4940;50.900;4.672;2022-08-19T08:04:31;5.00;;;3.38;;
9801;SDS011;4940;50.900;4.672;2022-08-19T08:07:17;3.28;;;2.90;;
9801;SDS011;4940;50.900;4.672;2022-08-19T08:10:03;3.72;;;3.20;;
9801;SDS011;4940;50.900;4.672;2022-08-19T08:12:32;4.20;;;3.35;;
9801;SDS011;4940;50.900;4.672;2022-08-19T08:15:06;4.03;;;3.10;;
9801;SDS011;4940;50.900;4.672;2022-08-19T08:17:37;4.75;;;3.47;;
9801;SDS011;4940;50.900;4.672;2022-08-19T08:20:07;3.83;;;3.05;;
9801;SDS011;4940;50.900;4.672;2022-08-19T08:22:34;4.60;;;2.97;;
9801;SDS011;4940;50.900;4.672;2022-08-19T08:25:22;6.53;;;3.53;;
9801;SDS011;4940;50.900;4.672;2022-08-19T08:27:53;10.20;;;3.83;;
9801;SDS011;4940;50.900;4.672;2022-08-19T08:30:22;4.72;;;3.28;;
9801;SDS011;4940;50.900;4.672;2022-08-19T08:32:51;7.70;;;3.47;;
9801;SDS011;4940;50.900;4.672;2022-08-19T08:35:20;5.85;;;3.15;;
9801;SDS011;4940;50.900;4.672;2022-08-19T08:37:50;5.90;;;3.80;;
9801;SDS011;4940;50.900;4.672;2022-08-19T08:40:19;5.63;;;3.53;;
9801;SDS011;4940;50.900;4.672;2022-08-19T08:42:52;4.32;;;3.40;;
9801;SDS011;4940;50.900;4.672;2022-08-19T08:45:25;5.93;;;3.83;;
9801;SDS011;4940;50.900;4.672;2022-08-19T08:47:55;3.78;;;3.33;;
9801;SDS011;4940;50.900;4.672;2022-08-19T08:50:29;4.60;;;3.30;;
9801;SDS011;4940;50.900;4.672;2022-08-19T08:53:01;4.72;;;3.45;;
9801;SDS011;4940;50.900;4.672;2022-08-19T08:55:30;4.32;;;3.03;;
9801;SDS011;4940;50.900;4.672;2022-08-19T08:57:59;4.10;;;3.25;;
9801;SDS011;4940;50.900;4.672;2022-08-19T09:00:28;3.75;;;3.35;;
9801;SDS011;4940;50.900;4.672;2022-08-19T09:02:56;6.20;;;3.42;;
9801;SDS011;4940;50.900;4.672;2022-08-19T09:05:26;4.05;;;3.22;;
9801;SDS011;4940;50.900;4.672;2022-08-19T09:08:02;5.32;;;3.25;;
9801;SDS011;4940;50.900;4.672;2022-08-19T09:10:36;6.07;;;3.25;;
9801;SDS011;4940;50.900;4.672;2022-08-19T09:13:06;6.38;;;3.45;;
9801;SDS011;4940;50.900;4.672;2022-08-19T09:15:38;3.95;;;3.05;;
9801;SDS011;4940;50.900;4.672;2022-08-19T09:18:10;2.80;;;2.58;;
9801;SDS011;4940;50.900;4.672;2022-08-19T09:20:38;4.43;;;3.30;;
9801;SDS011;4940;50.900;4.672;2022-08-19T09:23:07;4.15;;;2.53;;
9801;SDS011;4940;50.900;4.672;2022-08-19T09:25:36;5.38;;;3.25;;
9801;SDS011;4940;50.900;4.672;2022-08-19T09:28:05;3.00;;;2.70;;
9801;SDS011;4940;50.900;4.672;2022-08-19T09:30:33;3.42;;;2.85;;
9801;SDS011;4940;50.900;4.672;2022-08-19T09:33:16;4.63;;;3.20;;
9801;SDS011;4940;50.900;4.672;2022-08-19T09:35:43;4.45;;;2.92;;
9801;SDS011;4940;50.900;4.672;2022-08-19T09:38:12;4.88;;;3.10;;
9801;SDS011;4940;50.900;4.672;2022-08-19T09:40:40;4.90;;;3.25;;
9801;SDS011;4940;50.900;4.672;2022-08-19T09:43:08;4.40;;;3.22;;
9801;SDS011;4940;50.900;4.672;2022-08-19T09:45:37;3.25;;;2.78;;
9801;SDS011;4940;50.900;4.672;2022-08-19T09:48:04;3.78;;;2.92;;
9801;SDS011;4940;50.900;4.672;2022-08-19T09:50:31;4.70;;;3.20;;
9801;SDS011;4940;50.900;4.672;2022-08-19T09:52:59;3.50;;;2.75;;
9801;SDS011;4940;50.900;4.672;2022-08-19T09:55:28;3.65;;;2.92;;
9801;SDS011;4940;50.900;4.672;2022-08-19T09:57:55;4.78;;;2.85;;
9801;SDS011;4940;50.900;4.672;2022-08-19T10:00:25;4.88;;;3.20;;
9801;SDS011;4940;50.900;4.672;2022-08-19T10:02:52;5.63;;;3.10;;
9801;SDS011;4940;50.900;4.672;2022-08-19T10:05:19;4.80;;;3.30;;
9801;SDS011;4940;50.900;4.672;2022-08-19T10:08:03;4.15;;;2.90;;
9801;SDS011;4940;50.900;4.672;2022-08-19T10:10:36;4.13;;;3.05;;
9801;SDS011;4940;50.900;4.672;2022-08-19T10:13:03;3.20;;;2.90;;
9801;SDS011;4940;50.900;4.672;2022-08-19T10:15:30;6.30;;;3.20;;
9801;SDS011;4940;50.900;4.672;2022-08-19T10:17:57;3.40;;;2.78;;
9801;SDS011;4940;50.900;4.672;2022-08-19T10:20:24;4.15;;;3.70;;
9801;SDS011;4940;50.900;4.672;2022-08-19T10:22:52;5.93;;;3.08;;
9801;SDS011;4940;50.900;4.672;2022-08-19T10:25:21;3.85;;;3.20;;
9801;SDS011;4940;50.900;4.672;2022-08-19T10:27:50;3.85;;;2.80;;
9801;SDS011;4940;50.900;4.672;2022-08-19T10:30:17;3.70;;;2.90;;
9801;SDS011;4940;50.900;4.672;2022-08-19T10:32:46;4.55;;;3.67;;
9801;SDS011;4940;50.900;4.672;2022-08-19T10:35:13;4.78;;;2.83;;
9801;SDS011;4940;50.900;4.672;2022-08-19T10:37:40;3.83;;;3.03;;
9801;SDS011;4940;50.900;4.672;2022-08-19T10:40:08;3.80;;;3.40;;
9801;SDS011;4940;50.900;4.672;2022-08-19T10:42:38;4.05;;;3.53;;
9801;SDS011;4940;50.900;4.672;2022-08-19T10:45:07;3.20;;;2.90;;
9801;SDS011;4940;50.900;4.672;2022-08-19T10:47:35;4.07;;;3.05;;
9801;SDS011;4940;50.900;4.672;2022-08-19T10:50:03;6.00;;;3.58;;
9801;SDS011;4940;50.900;4.672;2022-08-19T10:52:48;4.38;;;3.40;;
9801;SDS011;4940;50.900;4.672;2022-08-19T10:55:17;4.60;;;3.30;;
9801;SDS011;4940;50.900;4.672;2022-08-19T10:58:02;6.47;;;3.00;;
9801;SDS011;4940;50.900;4.672;2022-08-19T11:00:31;4.20;;;3.25;;
9801;SDS011;4940;50.900;4.672;2022-08-19T11:02:59;4.40;;;3.03;;
9801;SDS011;4940;50.900;4.672;2022-08-19T11:05:26;4.28;;;3.30;;
9801;SDS011;4940;50.900;4.672;2022-08-19T11:07:53;3.47;;;2.92;;
9801;SDS011;4940;50.900;4.672;2022-08-19T11:10:20;3.22;;;2.45;;
9801;SDS011;4940;50.900;4.672;2022-08-19T11:12:49;2.83;;;2.50;;
9801;SDS011;4940;50.900;4.672;2022-08-19T11:15:20;4.78;;;2.05;;
9801;SDS011;4940;50.900;4.672;2022-08-19T11:17:50;2.25;;;1.85;;
9801;SDS011;4940;50.900;4.672;2022-08-19T11:20:19;2.53;;;2.33;;
9801;SDS011;4940;50.900;4.672;2022-08-19T11:22:46;2.47;;;2.28;;
9801;SDS011;4940;50.900;4.672;2022-08-19T11:25:13;2.47;;;2.20;;
9801;SDS011;4940;50.900;4.672;2022-08-19T11:27:40;2.47;;;2.20;;
9801;SDS011;4940;50.900;4.672;2022-08-19T11:30:09;2.22;;;2.00;;
9801;SDS011;4940;50.900;4.672;2022-08-19T11:32:37;2.92;;;1.98;;
9801;SDS011;4940;50.900;4.672;2022-08-19T11:35:06;3.53;;;2.33;;
9801;SDS011;4940;50.900;4.672;2022-08-19T11:37:34;3.13;;;2.42;;
9801;SDS011;4940;50.900;4.672;2022-08-19T11:40:03;2.60;;;2.40;;
9801;SDS011;4940;50.900;4.672;2022-08-19T11:42:31;3.00;;;2.70;;
9801;SDS011;4940;50.900;4.672;2022-08-19T11:45:16;3.65;;;2.40;;
9801;SDS011;4940;50.900;4.672;2022-08-19T11:47:44;3.70;;;3.03;;
9801;SDS011;4940;50.900;4.672;2022-08-19T11:50:15;3.35;;;3.00;;
9801;SDS011;4940;50.900;4.672;2022-08-19T11:52:43;3.50;;;3.05;;
9801;SDS011;4940;50.900;4.672;2022-08-19T11:55:12;3.60;;;3.20;;
9801;SDS011;4940;50.900;4.672;2022-08-19T11:57:40;4.25;;;3.20;;
9801;SDS011;4940;50.900;4.672;2022-08-19T12:00:09;3.85;;;3.17;;
9801;SDS011;4940;50.900;4.672;2022-08-19T12:02:38;4.40;;;3.45;;
9801;SDS011;4940;50.900;4.672;2022-08-19T12:05:06;4.38;;;3.40;;
9801;SDS011;4940;50.900;4.672;2022-08-19T12:07:36;4.38;;;3.40;;
9801;SDS011;4940;50.900;4.672;2022-08-19T12:10:03;4.90;;;3.58;;
9801;SDS011;4940;50.900;4.672;2022-08-19T12:12:31;4.13;;;3.33;;
9801;SDS011;4940;50.900;4.672;2022-08-19T12:14:58;4.45;;;3.40;;
9801;SDS011;4940;50.900;4.672;2022-08-19T12:17:26;4.63;;;3.58;;
9801;SDS011;4940;50.900;4.672;2022-08-19T12:19:53;4.43;;;3.28;;
9801;SDS011;4940;50.900;4.672;2022-08-19T12:22:21;5.80;;;3.58;;
9801;SDS011;4940;50.900;4.672;2022-08-19T12:24:50;6.50;;;3.50;;
9801;SDS011;4940;50.900;4.672;2022-08-19T12:27:18;3.95;;;3.55;;
9801;SDS011;4940;50.900;4.672;2022-08-19T12:29:45;7.90;;;4.18;;
9801;SDS011;4940;50.900;4.672;2022-08-19T12:32:14;6.72;;;4.22;;
9801;SDS011;4940;50.900;4.672;2022-08-19T12:34:42;5.63;;;4.45;;
9801;SDS011;4940;50.900;4.672;2022-08-19T12:37:09;5.68;;;4.03;;
9801;SDS011;4940;50.900;4.672;2022-08-19T12:39:37;7.18;;;4.18;;
9801;SDS011;4940;50.900;4.672;2022-08-19T12:42:10;5.82;;;4.30;;
9801;SDS011;4940;50.900;4.672;2022-08-19T12:44:39;5.97;;;4.30;;
9801;SDS011;4940;50.900;4.672;2022-08-19T12:47:07;4.40;;;3.85;;
9801;SDS011;4940;50.900;4.672;2022-08-19T12:49:37;4.85;;;3.85;;
9801;SDS011;4940;50.900;4.672;2022-08-19T12:52:05;4.75;;;3.58;;
9801;SDS011;4940;50.900;4.672;2022-08-19T12:54:33;4.57;;;4.15;;
9801;SDS011;4940;50.900;4.672;2022-08-19T12:57:04;5.53;;;4.38;;
9801;SDS011;4940;50.900;4.672;2022-08-19T12:59:34;4.35;;;3.72;;
9801;SDS011;4940;50.900;4.672;2022-08-19T13:02:02;6.10;;;3.80;;
9801;SDS011;4940;50.900;4.672;2022-08-19T13:04:31;7.15;;;3.60;;
9801;SDS011;4940;50.900;4.672;2022-08-19T13:07:00;4.35;;;3.10;;
9801;SDS011;4940;50.900;4.672;2022-08-19T13:09:27;3.83;;;3.47;;
9801;SDS011;4940;50.900;4.672;2022-08-19T13:11:55;3.72;;;3.13;;
9801;SDS011;4940;50.900;4.672;2022-08-19T13:14:22;4.30;;;3.75;;
9801;SDS011;4940;50.900;4.672;2022-08-19T13:16:51;3.70;;;2.80;;
9801;SDS011;4940;50.900;4.672;2022-08-19T13:19:18;4.18;;;3.20;;
9801;SDS011;4940;50.900;4.672;2022-08-19T13:21:48;4.65;;;3.47;;
9801;SDS011;4940;50.900;4.672;2022-08-19T13:24:16;3.78;;;3.45;;
9801;SDS011;4940;50.900;4.672;2022-08-19T13:26:43;4.43;;;2.80;;
9801;SDS011;4940;50.900;4.672;2022-08-19T13:29:10;3.42;;;2.95;;
9801;SDS011;4940;50.900;4.672;2022-08-19T13:31:57;4.18;;;3.58;;
9801;SDS011;4940;50.900;4.672;2022-08-19T13:34:42;4.30;;;2.88;;
9801;SDS011;4940;50.900;4.672;2022-08-19T13:37:10;3.75;;;2.95;;
9801;SDS011;4940;50.900;4.672;2022-08-19T13:39:37;5.57;;;3.08;;
9801;SDS011;4940;50.900;4.672;2022-08-19T13:42:04;3.08;;;2.60;;
9801;SDS011;4940;50.900;4.672;2022-08-19T13:44:32;3.17;;;2.60;;
9801;SDS011;4940;50.900;4.672;2022-08-19T13:47:01;2.65;;;2.45;;
9801;SDS011;4940;50.900;4.672;2022-08-19T13:49:30;6.68;;;2.55;;
9801;SDS011;4940;50.900;4.672;2022-08-19T13:52:00;2.50;;;2.30;;
9801;SDS011;4940;50.900;4.672;2022-08-19T13:54:27;2.50;;;2.20;;
9801;SDS011;4940;50.900;4.672;2022-08-19T13:56:54;2.42;;;2.22;;
9801;SDS011;4940;50.900;4.672;2022-08-19T13:59:22;6.05;;;2.13;;
9801;SDS011;4940;50.900;4.672;2022-08-19T14:01:50;3.17;;;1.95;;
9801;SDS011;4940;50.900;4.672;2022-08-19T14:04:19;1.52;;;1.42;;
9801;SDS011;4940;50.900;4.672;2022-08-19T14:06:47;1.85;;;1.70;;
9801;SDS011;4940;50.900;4.672;2022-08-19T14:09:14;2.83;;;1.95;;
9801;SDS011;4940;50.900;4.672;2022-08-19T14:11:42;2.65;;;1.90;;
9801;SDS011;4940;50.900;4.672;2022-08-19T14:14:11;2.08;;;1.75;;
9801;SDS011;4940;50.900;4.672;2022-08-19T14:16:39;1.80;;;1.70;;
9801;SDS011;4940;50.900;4.672;2022-08-19T14:19:06;1.70;;;1.60;;
9801;SDS011;4940;50.900;4.672;2022-08-19T14:21:35;2.72;;;1.67;;
9801;SDS011;4940;50.900;4.672;2022-08-19T14:24:02;2.50;;;1.90;;
9801;SDS011;4940;50.900;4.672;2022-08-19T14:26:31;1.70;;;1.60;;
9801;SDS011;4940;50.900;4.672;2022-08-19T14:28:58;1.40;;;1.30;;
9801;SDS011;4940;50.900;4.672;2022-08-19T14:31:26;1.67;;;1.58;;
9801;SDS011;4940;50.900;4.672;2022-08-19T14:33:53;1.67;;;1.50;;
9801;SDS011;4940;50.900;4.672;2022-08-19T14:36:20;1.60;;;1.50;;
9801;SDS011;4940;50.900;4.672;2022-08-19T14:38:49;2.20;;;1.50;;
9801;SDS011;4940;50.900;4.672;2022-08-19T14:41:17;1.30;;;1.20;;
9801;SDS011;4940;50.900;4.672;2022-08-19T14:43:50;5.60;;;1.67;;
9801;SDS011;4940;50.900;4.672;2022-08-19T14:46:23;2.08;;;1.40;;
9801;SDS011;4940;50.900;4.672;2022-08-19T14:48:56;2.50;;;1.70;;
9801;SDS011;4940;50.900;4.672;2022-08-19T14:51:23;2.42;;;1.30;;
9801;SDS011;4940;50.900;4.672;2022-08-19T14:54:01;3.10;;;1.77;;
9801;SDS011;4940;50.900;4.672;2022-08-19T14:56:31;2.30;;;1.65;;
9801;SDS011;4940;50.900;4.672;2022-08-19T14:58:59;5.13;;;1.70;;
9801;SDS011;4940;50.900;4.672;2022-08-19T15:01:28;4.10;;;1.50;;
9801;SDS011;4940;50.900;4.672;2022-08-19T15:04:09;3.60;;;1.63;;
9801;SDS011;4940;50.900;4.672;2022-08-19T15:06:36;11.73;;;1.70;;
9801;SDS011;4940;50.900;4.672;2022-08-19T15:09:06;2.67;;;1.85;;
9801;SDS011;4940;50.900;4.672;2022-08-19T15:11:34;2.63;;;1.88;;
9801;SDS011;4940;50.900;4.672;2022-08-19T15:14:02;2.13;;;1.70;;
9801;SDS011;4940;50.900;4.672;2022-08-19T15:16:30;9.07;;;2.47;;
9801;SDS011;4940;50.900;4.672;2022-08-19T15:18:58;2.00;;;1.80;;